Data for 05/04/2008

Time Sea-Level Adjusted Pressure Absolute Pressure Temperature Relative Humidity Dew Point   
(mb) (inHg) (mb) (inHg) (C) (F) (%) (C) (F)
00:05 1017 30.03 846 24.98 8.8 47.9 43 -3.1 26.3
00:10 1017 30.03 846 24.98 8.7 47.7 43 -3.2 26.3
00:15 1017 30.03 846 24.98 8.7 47.6 43 -3.1 26.4
00:20 1017 30.03 846 24.98 8.5 47.4 44 -3 26.5
00:25 1017 30.03 846 24.98 8.5 47.3 45 -2.9 26.8
00:30 1017 30.03 846 24.98 8.3 46.9 45 -2.8 26.9
00:35 1017 30.03 846 24.98 8.2 46.8 44 -3.2 26.2
00:40 1017 30.03 846 24.98 8.2 46.8 44 -3.4 25.9
00:45 1017 30.03 846 24.98 8.2 46.8 43 -3.4 25.8
00:50 1017 30.03 846 24.98 8.2 46.8 43 -3.5 25.6
00:55 1017 30.03 846 24.98 8.3 46.9 43 -3.6 25.5
01:00 1017 30.03 846 24.98 8.3 47 43 -3.5 25.7
01:05 1017 30.03 846 24.98 8.4 47 43 -3.5 25.7
01:10 1017 30.03 846 24.98 8.4 47.1 43 -3.4 25.9
01:15 1017 30.03 846 24.98 8.3 47 42 -3.9 25.1
01:20 1017 30.03 846 24.98 8.5 47.3 43 -3.4 25.8
01:25 1017 30.03 846 24.98 8.6 47.4 42 -3.6 25.6
01:30 1017 30.03 846 24.98 8.5 47.4 43 -3.3 26
01:35 1017 30.03 846 24.98 8.4 47.2 42 -3.7 25.4
01:40 1017 30.03 846 24.98 8.4 47.1 44 -3.2 26.2
01:45 1017 30.03 846 24.98 8.2 46.7 43 -3.6 25.5
01:50 1017 30.03 846 24.98 8.2 46.7 44 -3.4 25.9
01:55 1017 30.03 846 24.98 8 46.4 45 -3.3 26.1
02:00 1017 30.03 846 24.98 7.9 46.3 46 -3.1 26.5
02:05 1017 30.03 846 24.98 8.1 46.5 46 -2.9 26.8
02:10 1017 30.03 846 24.98 8.1 46.5 46 -2.7 27.1
02:15 1017 30.03 846 24.98 8 46.4 47 -2.5 27.5
02:20 1017 30.03 846 24.98 7.8 46 49 -2.2 28
02:25 1017 30.03 846 24.98 7.4 45.4 49 -2.4 27.6
02:30 1017 30.03 846 24.98 7.3 45.2 50 -2.3 27.9
02:35 1017 30.03 846 24.98 7.3 45.1 49 -2.6 27.3
02:40 1017 30.03 846 24.98 7.4 45.2 50 -2.4 27.6
02:45 1017 30.03 846 24.98 7.3 45.1 51 -2.1 28.1
02:50 1017 30.03 846 24.98 6.9 44.5 53 -2.1 28.2
02:55 1017 30.03 846 24.98 6.9 44.5 49 -3.1 26.4
03:00 1017 30.03 846 24.98 7.1 44.7 51 -2.3 27.9
03:05 1017 30.03 846 24.98 7 44.5 51 -2.5 27.4
03:10 1017 30.03 846 24.98 7 44.6 49 -2.9 26.7
03:15 1017 30.03 846 24.98 7.1 44.8 50 -2.6 27.4
03:20 1017 30.03 846 24.98 6.9 44.4 51 -2.6 27.4
03:25 1017 30.03 846 24.98 7 44.6 50 -2.6 27.3
03:30 1017 30.03 846 24.98 7.2 45 50 -2.5 27.5
03:35 1017 30.03 846 24.98 7.1 44.8 51 -2.4 27.7
03:40 1017 30.03 846 24.98 7.1 44.7 50 -2.7 27.1
03:45 1017 30.03 846 24.98 6.9 44.5 51 -2.5 27.5
03:50 1017 30.03 847 25.01 6.6 43.9 53 -2.2 28
03:55 1017 30.03 847 25.01 6.6 43.9 53 -2.4 27.8
04:00 1017 30.03 847 25.01 6.7 44.1 53 -2.1 28.1
04:05 1017 30.03 847 25.01 6.5 43.7 55 -1.9 28.6
04:10 1017 30.03 847 25.01 6.3 43.3 56 -1.8 28.8
04:15 1018 30.06 847 25.01 6.1 43 57 -1.8 28.8
04:20 1018 30.06 847 25.01 5.9 42.7 58 -1.8 28.8
04:25 1018 30.06 847 25.01 5.8 42.5 58 -1.8 28.7
04:30 1018 30.06 847 25.01 5.6 42.1 59 -1.8 28.8
04:35 1018 30.06 847 25.01 5.3 41.5 60 -1.8 28.7
04:40 1018 30.06 847 25.01 5 41.1 60 -2 28.3
04:45 1018 30.06 847 25.01 5.1 41.2 59 -2.2 28.1
04:50 1018 30.06 847 25.01 5.1 41.1 60 -2 28.4
04:55 1018 30.06 847 25.01 4.7 40.5 62 -2 28.4
05:00 1018 30.06 847 25.01 4.5 40.2 62 -2.1 28.2
05:05 1018 30.06 847 25.01 4.5 40.1 62 -2.1 28.2
05:10 1018 30.06 847 25.01 4.4 39.9 62 -2.3 27.8
05:15 1018 30.06 847 25.01 4.5 40 60 -2.5 27.5
05:20 1018 30.06 847 25.01 4.8 40.7 59 -2.6 27.3
05:25 1018 30.06 847 25.01 5 41 57 -2.7 27.2
05:30 1018 30.06 847 25.01 5.1 41.2 57 -2.6 27.3
05:35 1018 30.06 847 25.01 4.8 40.7 59 -2.6 27.4
05:40 1018 30.06 847 25.01 4.5 40.1 60 -2.6 27.4
05:45 1018 30.06 847 25.01 4.4 39.9 60 -2.7 27.1
05:50 1018 30.06 847 25.01 4.4 40 60 -2.7 27.2
05:55 1018 30.06 847 25.01 4.4 40 60 -2.7 27.2
06:00 1018 30.06 847 25.01 4.3 39.8 60 -2.7 27.1
06:05 1018 30.06 847 25.01 4.2 39.5 61 -2.7 27.2
06:10 1018 30.06 847 25.01 4 39.1 62 -2.7 27.2
06:15 1018 30.06 847 25.01 3.8 38.8 63 -2.7 27.1
06:20 1018 30.06 847 25.01 3.5 38.4 63 -2.7 27.1
06:25 1018 30.06 847 25.01 3.3 37.9 65 -2.7 27.1
06:30 1018 30.06 847 25.01 3.1 37.7 66 -2.6 27.2
06:35 1018 30.06 847 25.01 3 37.5 66 -2.6 27.3
06:40 1018 30.06 848 25.04 3 37.5 65 -2.8 26.9
06:45 1018 30.06 848 25.04 3.2 37.7 64 -2.9 26.8
06:50 1018 30.06 848 25.04 3.4 38.1 63 -2.9 26.8
06:55 1018 30.06 848 25.04 3.6 38.4 62 -2.9 26.7
07:00 1019 30.09 848 25.04 3.8 38.8 61 -3 26.7
07:05 1019 30.09 848 25.04 4 39.1 61 -3 26.7
07:10 1019 30.09 848 25.04 4.1 39.4 60 -2.9 26.8
07:15 1019 30.09 848 25.04 4.2 39.5 60 -2.9 26.8
07:20 1019 30.09 848 25.04 4.4 40 60 -2.7 27.1
07:25 1019 30.09 848 25.04 4.5 40.1 59 -2.7 27.2
07:30 1019 30.09 848 25.04 4.8 40.7 58 -2.6 27.3
07:35 1019 30.09 848 25.04 5.4 41.7 56 -2.7 27.1
07:40 1019 30.09 848 25.04 5.8 42.4 55 -2.6 27.4
07:45 1019 30.09 848 25.04 5.9 42.7 55 -2.4 27.6
07:50 1019 30.09 848 25.04 6.2 43.2 55 -2.2 28
07:55 1019 30.09 848 25.04 6.4 43.6 54 -2.2 28
08:00 1019 30.09 848 25.04 6.6 43.9 53 -2.4 27.7
08:05 1019 30.09 848 25.04 7.1 44.7 51 -2.4 27.7
08:10 1019 30.09 848 25.04 7.4 45.2 51 -2.1 28.2
08:15 1019 30.09 848 25.04 7.9 46.2 49 -2.1 28.3
08:20 1019 30.09 848 25.04 8.2 46.8 48 -2.1 28.1
08:25 1019 30.09 848 25.04 8.5 47.3 46 -2.4 27.7
08:30 1019 30.09 848 25.04 8.8 47.9 46 -2 28.4
08:35 1019 30.09 848 25.04 8.9 47.9 47 -1.9 28.7
08:40 1019 30.09 848 25.04 9 48.1 46 -1.9 28.5
08:45 1019 30.09 848 25.04 9.2 48.6 44 -2.3 27.9
08:50 1019 30.09 848 25.04 9.3 48.8 45 -2 28.4
08:55 1019 30.09 848 25.04 9.8 49.7 43 -2.1 28.1
09:00 1019 30.09 848 25.04 10.3 50.6 42 -1.9 28.5
09:05 1019 30.09 848 25.04 10.5 50.9 41 -2 28.4
09:10 1019 30.09 848 25.04 10.7 51.3 40 -2.4 27.8
09:15 1019 30.09 848 25.04 10.6 51.1 39 -2.7 27.2
09:20 1019 30.09 848 25.04 10.5 50.9 38 -3 26.6
09:25 1019 30.09 848 25.04 11 51.8 38 -2.8 26.9
09:30 1019 30.09 848 25.04 11.7 53.1 36 -2.9 26.7
09:35 1019 30.09 848 25.04 12.2 53.9 35 -2.9 26.7
09:40 1019 30.09 848 25.04 12.1 53.8 34 -3.1 26.4
09:45 1019 30.09 848 25.04 11.5 52.7 35 -3.5 25.8
09:50 1019 30.09 848 25.04 12.2 54 34 -3.2 26.2
09:55 1019 30.09 848 25.04 12.6 54.6 33 -3.1 26.5
10:00 1019 30.09 848 25.04 12.6 54.7 33 -3.2 26.2
10:05 1019 30.09 848 25.04 12.6 54.6 32 -3.5 25.7
10:10 1019 30.09 848 25.04 12.3 54.2 33 -3.5 25.7
10:15 1019 30.09 848 25.04 12.6 54.8 33 -3.2 26.2
10:20 1019 30.09 848 25.04 12.4 54.3 34 -3.1 26.4
10:25 1019 30.09 848 25.04 12.5 54.5 34 -3 26.6
10:30 1019 30.09 848 25.04 13.1 55.5 31 -3.5 25.7
10:35 1019 30.09 848 25.04 13.3 55.9 31 -3.3 26.1
10:40 1019 30.09 848 25.04 13.5 56.3 31 -3.1 26.4
10:45 1019 30.09 848 25.04 12.7 54.8 33 -3.2 26.3
10:50 1019 30.09 848 25.04 12.7 54.9 32 -3.5 25.7
10:55 1019 30.09 848 25.04 13 55.4 31 -3.6 25.6
11:00 1019 30.09 848 25.04 13.7 56.7 30 -3.6 25.4
11:05 1019 30.09 848 25.04 13.8 56.9 29 -3.9 24.9
11:10 1019 30.09 848 25.04 14.2 57.5 31 -2.6 27.3
11:15 1019 30.09 848 25.04 14.1 57.4 35 -1.2 29.8
11:20 1019 30.09 848 25.04 13.4 56.2 35 -1.5 29.2
11:25 1019 30.09 848 25.04 13.4 56.1 34 -2 28.4
11:30 1019 30.09 848 25.04 13.3 55.9 32 -2.8 27
11:35 1019 30.09 848 25.04 14.1 57.3 29 -3.6 25.6
11:40 1019 30.09 848 25.04 14.7 58.4 29 -3.3 26
11:45 1019 30.09 848 25.04 15.4 59.7 27 -3.3 26.1
11:50 1019 30.09 848 25.04 15.1 59.1 29 -2.5 27.4
11:55 1019 30.09 848 25.04 14.8 58.6 27 -3.7 25.3
12:00 1019 30.09 848 25.04 14 57.2 26 -5.1 22.9
12:05 1019 30.09 848 25.04 15 58.9 25 -4.9 23.1
12:10 1019 30.09 848 25.04 15.6 60.2 26 -3.6 25.6
12:15 1019 30.09 848 25.04 16 60.9 25 -3.7 25.3
12:20 1019 30.09 848 25.04 15.9 60.6 24 -4.6 23.7
12:25 1019 30.09 848 25.04 15.1 59.2 26 -4.2 24.4
12:30 1019 30.09 848 25.04 15 59 26 -4.5 24
12:35 1019 30.09 848 25.04 14.8 58.7 26 -4.5 23.9
12:40 1019 30.09 848 25.04 15.1 59.2 25 -4.8 23.4
12:45 1019 30.09 848 25.04 14.5 58.1 26 -4.9 23.2
12:50 1019 30.09 848 25.04 15.7 60.3 24 -4.8 23.3
12:55 1019 30.09 848 25.04 16.5 61.6 23 -4.5 23.9
13:00 1019 30.09 848 25.04 16.5 61.6 24 -3.9 24.9
13:05 1019 30.09 848 25.04 17.1 62.8 22 -4.6 23.8
13:10 1018 30.06 848 25.04 16.7 62 24 -4.1 24.7
13:15 1018 30.06 848 25.04 17.1 62.7 22 -4.5 23.9
13:20 1018 30.06 848 25.04 17.5 63.4 22 -4.4 24.2
13:25 1018 30.06 848 25.04 17.8 64 22 -4.2 24.5
13:30 1018 30.06 848 25.04 17.2 62.9 22 -4.6 23.7
13:35 1018 30.06 847 25.01 17.6 63.7 22 -4.3 24.2
13:40 1018 30.06 848 25.04 17.6 63.7 21 -4.8 23.3
13:45 1018 30.06 847 25.01 17.5 63.5 22 -4.4 24.1
13:50 1018 30.06 847 25.01 16.8 62.3 24 -3.7 25.4
13:55 1018 30.06 847 25.01 16 60.8 23 -4.8 23.3
14:00 1018 30.06 847 25.01 17.1 62.7 23 -4.2 24.4
14:05 1018 30.06 847 25.01 17.3 63.2 21 -4.9 23.2
14:10 1018 30.06 847 25.01 17.6 63.7 20 -5.2 22.6
14:15 1018 30.06 847 25.01 16.9 62.4 21 -5.4 22.3
14:20 1018 30.06 847 25.01 16.4 61.4 22 -5.1 22.7
14:25 1018 30.06 847 25.01 16.7 62.1 23 -4.5 23.9
14:30 1018 30.06 847 25.01 17.3 63.1 22 -4.7 23.6
14:35 1018 30.06 847 25.01 17.5 63.4 21 -5.2 22.7
14:40 1018 30.06 847 25.01 17.3 63.1 21 -5 23
14:45 1018 30.06 847 25.01 17.3 63.1 22 -4.7 23.5
14:50 1018 30.06 847 25.01 16.3 61.3 22 -5.4 22.3
14:55 1018 30.06 847 25.01 15.8 60.5 23 -5.4 22.2
15:00 1018 30.06 847 25.01 16.6 61.8 22 -5.2 22.7
15:05 1018 30.06 847 25.01 16.1 61 23 -5.2 22.7
15:10 1018 30.06 847 25.01 15.6 60.1 24 -4.8 23.3
15:15 1018 30.06 847 25.01 16.4 61.6 23 -4.9 23.1
15:20 1018 30.06 847 25.01 17.7 63.9 21 -4.7 23.5
15:25 1018 30.06 847 25.01 18.3 65 21 -4.4 24.1
15:30 1018 30.06 847 25.01 17.8 64.1 23 -3.4 25.8
15:35 1018 30.06 847 25.01 16.8 62.3 22 -4.7 23.6
15:40 1018 30.06 847 25.01 16.9 62.5 23 -4.2 24.5
15:45 1018 30.06 847 25.01 17.2 62.9 23 -4.2 24.5
15:50 1018 30.06 847 25.01 17.8 64 21 -4.4 24
15:55 1018 30.06 847 25.01 17.4 63.3 22 -4.2 24.4
16:00 1018 30.06 847 25.01 17.4 63.3 21 -4.8 23.4
16:05 1018 30.06 847 25.01 17.6 63.6 22 -4.3 24.3
16:10 1018 30.06 847 25.01 17 62.6 23 -4.2 24.4
16:15 1018 30.06 847 25.01 16.7 62 23 -4.5 23.9
16:20 1018 30.06 847 25.01 16.7 62 23 -4.4 24.1
16:25 1018 30.06 847 25.01 16.6 61.9 23 -4.5 24
16:30 1018 30.06 847 25.01 16.4 61.6 23 -4.8 23.4
16:35 1018 30.06 847 25.01 16.1 60.9 23 -4.8 23.3
16:40 1018 30.06 847 25.01 16.3 61.4 24 -4.2 24.5
16:45 1017 30.03 847 25.01 16.7 62 24 -4 24.8
16:50 1017 30.03 847 25.01 16.1 61 24 -4.2 24.4
16:55 1018 30.06 847 25.01 16.1 60.9 24 -4.4 24.2
17:00 1018 30.06 847 25.01 16.1 61 24 -4.2 24.4
17:05 1018 30.06 847 25.01 16.3 61.3 25 -3.9 25
17:10 1018 30.06 847 25.01 16.9 62.3 23 -4.2 24.4
17:15 1018 30.06 847 25.01 17.3 63.2 23 -4 24.9
17:20 1018 30.06 847 25.01 16.7 62 23 -4.6 23.6
17:25 1018 30.06 847 25.01 17.1 62.7 23 -4.2 24.4
17:30 1018 30.06 847 25.01 17.3 63.2 23 -4 24.8
17:35 1018 30.06 847 25.01 17.9 64.2 22 -3.9 24.9
17:40 1018 30.06 847 25.01 17.6 63.8 24 -2.8 27
17:45 1018 30.06 847 25.01 17.1 62.7 24 -3.4 25.9
17:50 1018 30.06 847 25.01 17.3 63.1 24 -3.2 26.2
17:55 1018 30.06 847 25.01 17.3 63.2 24 -3.1 26.4
18:00 1018 30.06 847 25.01 16.9 62.5 25 -3.2 26.3
18:05 1018 30.06 847 25.01 16.9 62.4 24 -3.8 25.2
18:10 1018 30.06 847 25.01 16.9 62.4 25 -3.4 25.9
18:15 1018 30.06 847 25.01 17 62.6 24 -3.7 25.3
18:20 1018 30.06 847 25.01 17 62.5 24 -3.4 25.9
18:25 1018 30.06 847 25.01 17.1 62.7 24 -3.5 25.7
18:30 1018 30.06 847 25.01 17 62.6 24 -3.6 25.5
18:35 1018 30.06 847 25.01 17.1 62.8 24 -3.8 25.2
18:40 1018 30.06 847 25.01 16.8 62.2 24 -3.7 25.4
18:45 1018 30.06 847 25.01 16.3 61.3 25 -3.8 25.1
18:50 1018 30.06 847 25.01 15.6 60 26 -3.7 25.3
18:55 1018 30.06 847 25.01 15.1 59.1 27 -3.6 25.4
19:00 1018 30.06 847 25.01 15.4 59.7 27 -3.6 25.6
19:05 1017 30.03 847 25.01 15.7 60.2 26 -3.6 25.6
19:10 1018 30.06 847 25.01 15.7 60.2 27 -3.4 25.9
19:15 1018 30.06 847 25.01 15.5 59.9 27 -3.3 26.1
19:20 1018 30.06 847 25.01 15.6 60.1 26 -3.6 25.5
19:25 1018 30.06 847 25.01 15.6 60 26 -3.5 25.6
19:30 1018 30.06 847 25.01 15.5 59.9 27 -3.5 25.7
19:35 1018 30.06 847 25.01 15.5 59.9 27 -3.4 25.9
19:40 1018 30.06 847 25.01 15.4 59.8 27 -3.4 25.9
19:45 1018 30.06 847 25.01 15.4 59.7 27 -3.3 26.1
19:50 1018 30.06 847 25.01 15.3 59.6 27 -3.7 25.4
19:55 1018 30.06 847 25.01 15.3 59.5 27 -3.6 25.6
20:00 1018 30.06 847 25.01 15.2 59.4 28 -3.3 26.1
20:05 1018 30.06 847 25.01 15.2 59.3 28 -3.1 26.4
20:10 1018 30.06 847 25.01 15.1 59.1 28 -3.2 26.3
20:15 1018 30.06 847 25.01 14.9 58.9 28 -3.2 26.2
20:20 1018 30.06 847 25.01 14.9 58.8 29 -3.1 26.3
20:25 1018 30.06 847 25.01 14.8 58.6 29 -3 26.7
20:30 1018 30.06 847 25.01 14.7 58.4 29 -2.8 26.9
20:35 1018 30.06 847 25.01 14.6 58.3 30 -2.7 27.1
20:40 1018 30.06 847 25.01 14.5 58.1 30 -2.7 27.1
20:45 1018 30.06 847 25.01 14.4 57.8 31 -2.6 27.3
20:50 1018 30.06 847 25.01 14.2 57.6 31 -2.6 27.4
20:55 1018 30.06 847 25.01 14.1 57.4 32 -2.3 27.8
21:00 1018 30.06 847 25.01 13.3 55.9 39 -0.3 31.5
21:05 1018 30.06 847 25.01 12 53.6 42 -0.5 31
21:10 1018 30.06 848 25.04 11.6 52.9 43 -0.4 31.3
21:15 1018 30.06 848 25.04 11.3 52.4 45 -0.2 31.7
21:20 1019 30.09 848 25.04 10.9 51.7 46 -0.2 31.6
21:25 1019 30.09 848 25.04 10.7 51.3 47 -0.1 31.7
21:30 1019 30.09 848 25.04 10.4 50.8 47 -0.3 31.5
21:35 1019 30.09 848 25.04 10.3 50.6 48 -0.2 31.6
21:40 1019 30.09 848 25.04 9.9 49.9 49 -0.3 31.5
21:45 1019 30.09 848 25.04 9.6 49.3 50 -0.4 31.3
21:50 1019 30.09 848 25.04 9.4 49 51 -0.2 31.6
21:55 1019 30.09 848 25.04 9.3 48.7 50 -0.5 31.1
22:00 1019 30.09 848 25.04 9.2 48.5 50 -0.7 30.7
22:05 1019 30.09 848 25.04 9.1 48.4 50 -0.7 30.7
22:10 1019 30.09 848 25.04 9 48.3 51 -0.4 31.2
22:15 1019 30.09 848 25.04 8.8 47.8 51 -0.7 30.7
22:20 1019 30.09 848 25.04 8.7 47.6 51 -0.8 30.6
22:25 1019 30.09 848 25.04 8.5 47.4 52 -0.8 30.5
22:30 1019 30.09 848 25.04 8.4 47.1 51 -1.1 30
22:35 1019 30.09 848 25.04 8.3 47 51 -1.1 30
22:40 1019 30.09 848 25.04 8.2 46.7 51 -1.2 29.8
22:45 1019 30.09 848 25.04 8.1 46.5 52 -1.2 29.9
22:50 1019 30.09 848 25.04 7.9 46.2 53 -1.2 29.9
22:55 1019 30.09 848 25.04 7.8 46 52 -1.3 29.7
23:00 1019 30.09 848 25.04 7.8 46 52 -1.3 29.6
23:05 1019 30.09 848 25.04 7.8 46 52 -1.4 29.5
23:10 1019 30.09 848 25.04 7.8 46.1 52 -1.5 29.4
23:15 1019 30.09 848 25.04 7.9 46.2 52 -1.5 29.3
23:20 1019 30.09 848 25.04 7.9 46.2 52 -1.5 29.4
23:25 1019 30.09 848 25.04 7.8 46 52 -1.4 29.4
23:30 1019 30.09 848 25.04 7.7 45.8 53 -1.4 29.5
23:35 1019 30.09 848 25.04 7.5 45.6 54 -1.3 29.7
23:40 1019 30.09 848 25.04 7.5 45.5 53 -1.3 29.6
23:45 1019 30.09 848 25.04 7.4 45.3 54 -1.3 29.6
23:50 1019 30.09 848 25.04 7.3 45.1 55 -1.3 29.7
23:55 1019 30.09 848 25.04 7.2 44.9 55 -1.3 29.6
24:00 1019 30.09 848 25.04 7.2 44.9 55 -1.3 29.6